sensor_id;sensor_type;location;lat;lon;timestamp;pressure;altitude;pressure_sealevel;temperature;humidity
39613;BME280;25303;48.896;13.342;2022-12-07T00:01:13;92534.56;;;0.93;79.28
39613;BME280;25303;48.896;13.342;2022-12-07T00:03:58;92536.19;;;0.94;79.33
39613;BME280;25303;48.896;13.342;2022-12-07T00:06:50;92530.22;;;0.95;79.20
39613;BME280;25303;48.896;13.342;2022-12-07T00:09:35;92532.66;;;0.96;79.29
39613;BME280;25303;48.896;13.342;2022-12-07T00:12:18;92532.75;;;0.95;79.07
39613;BME280;25303;48.896;13.342;2022-12-07T00:15:01;92530.34;;;0.93;79.22
39613;BME280;25303;48.896;13.342;2022-12-07T00:17:44;92540.56;;;0.91;78.90
39613;BME280;25303;48.896;13.342;2022-12-07T00:20:27;92534.81;;;0.89;78.91
39613;BME280;25303;48.896;13.342;2022-12-07T00:23:10;92524.56;;;0.91;78.87
39613;BME280;25303;48.896;13.342;2022-12-07T00:25:54;92526.06;;;0.94;79.06
39613;BME280;25303;48.896;13.342;2022-12-07T00:28:37;92522.81;;;0.91;78.91
39613;BME280;25303;48.896;13.342;2022-12-07T00:31:21;92523.16;;;0.87;78.79
39613;BME280;25303;48.896;13.342;2022-12-07T00:34:05;92523.16;;;0.87;78.77
39613;BME280;25303;48.896;13.342;2022-12-07T00:36:49;92525.81;;;0.85;78.85
39613;BME280;25303;48.896;13.342;2022-12-07T00:39:32;92513.84;;;0.87;78.84
39613;BME280;25303;48.896;13.342;2022-12-07T00:42:16;92518.69;;;0.90;78.89
39613;BME280;25303;48.896;13.342;2022-12-07T00:44:59;92519.59;;;0.89;78.92
39613;BME280;25303;48.896;13.342;2022-12-07T00:47:41;92517.06;;;0.89;78.93
39613;BME280;25303;48.896;13.342;2022-12-07T00:50:24;92520.03;;;0.83;78.70
39613;BME280;25303;48.896;13.342;2022-12-07T00:53:07;92527.13;;;0.78;78.68
39613;BME280;25303;48.896;13.342;2022-12-07T00:55:50;92520.44;;;0.77;78.94
39613;BME280;25303;48.896;13.342;2022-12-07T00:58:35;92517.69;;;0.80;79.08
39613;BME280;25303;48.896;13.342;2022-12-07T01:01:18;92522.56;;;0.83;79.00
39613;BME280;25303;48.896;13.342;2022-12-07T01:04:01;92522.56;;;0.83;78.99
39613;BME280;25303;48.896;13.342;2022-12-07T01:06:45;92514.03;;;0.84;78.79
39613;BME280;25303;48.896;13.342;2022-12-07T01:09:28;92515.16;;;0.80;78.94
39613;BME280;25303;48.896;13.342;2022-12-07T01:12:10;92524.50;;;0.80;78.74
39613;BME280;25303;48.896;13.342;2022-12-07T01:14:55;92515.88;;;0.82;78.74
39613;BME280;25303;48.896;13.342;2022-12-07T01:17:38;92515.06;;;0.82;78.85
39613;BME280;25303;48.896;13.342;2022-12-07T01:20:20;92520.22;;;0.80;78.71
39613;BME280;25303;48.896;13.342;2022-12-07T01:23:03;92515.16;;;0.80;78.94
39613;BME280;25303;48.896;13.342;2022-12-07T01:25:54;92528.53;;;0.82;78.99
39613;BME280;25303;48.896;13.342;2022-12-07T01:28:37;92520.72;;;0.85;78.99
39613;BME280;25303;48.896;13.342;2022-12-07T01:31:24;92523.16;;;0.87;79.09
39613;BME280;25303;48.896;13.342;2022-12-07T01:34:08;92519.59;;;0.89;78.93
39613;BME280;25303;48.896;13.342;2022-12-07T01:36:51;92512.81;;;0.90;79.17
39613;BME280;25303;48.896;13.342;2022-12-07T01:39:34;92516.16;;;0.90;78.88
39613;BME280;25303;48.896;13.342;2022-12-07T01:42:17;92512.69;;;0.91;78.83
39613;BME280;25303;48.896;13.342;2022-12-07T01:48:30;92514.03;;;0.84;79.07
39613;BME280;25303;48.896;13.342;2022-12-07T01:51:15;92510.59;;;0.85;79.18
39613;BME280;25303;48.896;13.342;2022-12-07T01:53:58;92518.06;;;0.87;78.89
39613;BME280;25303;48.896;13.342;2022-12-07T01:56:43;92514.75;;;0.86;78.91
39613;BME280;25303;48.896;13.342;2022-12-07T01:59:28;92513.84;;;0.87;78.92
39613;BME280;25303;48.896;13.342;2022-12-07T02:02:16;92512.22;;;0.86;78.89
39613;BME280;25303;48.896;13.342;2022-12-07T02:05:04;92518.00;;;0.88;78.96
39613;BME280;25303;48.896;13.342;2022-12-07T02:07:48;92518.00;;;0.88;78.91
39613;BME280;25303;48.896;13.342;2022-12-07T02:10:32;92508.06;;;0.85;78.89
39613;BME280;25303;48.896;13.342;2022-12-07T02:13:17;92509.69;;;0.86;78.73
39613;BME280;25303;48.896;13.342;2022-12-07T02:16:21;92513.94;;;0.86;78.75
39613;BME280;25303;48.896;13.342;2022-12-07T02:19:35;92515.75;;;0.84;78.47
39613;BME280;25303;48.896;13.342;2022-12-07T02:25:43;92501.00;;;0.78;78.76
39613;BME280;25303;48.896;13.342;2022-12-07T02:28:31;92503.75;;;0.74;78.58
39613;BME280;25303;48.896;13.342;2022-12-07T02:31:19;92504.78;;;0.72;78.51
39613;BME280;25303;48.896;13.342;2022-12-07T02:34:07;92502.31;;;0.70;78.70
39613;BME280;25303;48.896;13.342;2022-12-07T02:36:55;92499.78;;;0.70;78.60
39613;BME280;25303;48.896;13.342;2022-12-07T02:39:43;92509.84;;;0.72;78.53
39613;BME280;25303;48.896;13.342;2022-12-07T02:42:31;92511.53;;;0.71;78.65
39613;BME280;25303;48.896;13.342;2022-12-07T02:45:18;92513.06;;;0.74;78.65
39613;BME280;25303;48.896;13.342;2022-12-07T02:48:05;92502.94;;;0.74;78.80
39613;BME280;25303;48.896;13.342;2022-12-07T02:50:50;92501.91;;;0.77;78.70
39613;BME280;25303;48.896;13.342;2022-12-07T02:53:35;92504.31;;;0.78;78.57
39613;BME280;25303;48.896;13.342;2022-12-07T02:56:27;92499.16;;;0.80;78.54
39613;BME280;25303;48.896;13.342;2022-12-07T02:59:24;92499.38;;;0.77;78.40
39613;BME280;25303;48.896;13.342;2022-12-07T03:02:16;92497.75;;;0.75;78.53
39613;BME280;25303;48.896;13.342;2022-12-07T03:08:13;92486.91;;;0.73;78.53
39613;BME280;25303;48.896;13.342;2022-12-07T03:11:03;92491.06;;;0.74;78.64
39613;BME280;25303;48.896;13.342;2022-12-07T03:13:50;92486.13;;;0.73;78.73
39613;BME280;25303;48.896;13.342;2022-12-07T03:16:40;92485.41;;;0.71;78.52
39613;BME280;25303;48.896;13.342;2022-12-07T03:19:26;92485.50;;;0.69;78.53
39613;BME280;25303;48.896;13.342;2022-12-07T03:22:12;92477.31;;;0.66;78.44
39613;BME280;25303;48.896;13.342;2022-12-07T03:24:59;92483.28;;;0.65;78.66
39613;BME280;25303;48.896;13.342;2022-12-07T03:27:46;92479.06;;;0.65;78.79
39613;BME280;25303;48.896;13.342;2022-12-07T03:30:37;92476.28;;;0.68;78.65
39613;BME280;25303;48.896;13.342;2022-12-07T03:33:25;92473.66;;;0.70;78.70
39613;BME280;25303;48.896;13.342;2022-12-07T03:36:16;92471.91;;;0.70;78.60
39613;BME280;25303;48.896;13.342;2022-12-07T03:39:13;92468.47;;;0.71;78.64
39613;BME280;25303;48.896;13.342;2022-12-07T03:42:01;92465.16;;;0.71;78.76
39613;BME280;25303;48.896;13.342;2022-12-07T03:44:46;92465.16;;;0.71;78.69
39613;BME280;25303;48.896;13.342;2022-12-07T03:47:33;92459.16;;;0.72;78.72
39613;BME280;25303;48.896;13.342;2022-12-07T03:50:23;92471.84;;;0.72;78.49
39613;BME280;25303;48.896;13.342;2022-12-07T03:53:11;92474.56;;;0.69;78.50
39613;BME280;25303;48.896;13.342;2022-12-07T03:55:59;92468.69;;;0.68;78.60
39613;BME280;25303;48.896;13.342;2022-12-07T03:58:44;92468.91;;;0.65;78.39
39613;BME280;25303;48.896;13.342;2022-12-07T04:01:27;92467.31;;;0.64;78.21
39613;BME280;25303;48.896;13.342;2022-12-07T04:04:10;92464.84;;;0.63;78.41
39613;BME280;25303;48.896;13.342;2022-12-07T04:06:53;92462.31;;;0.63;78.37
39613;BME280;25303;48.896;13.342;2022-12-07T04:09:36;92460.81;;;0.60;78.39
39613;BME280;25303;48.896;13.342;2022-12-07T04:12:20;92462.44;;;0.61;78.55
39613;BME280;25303;48.896;13.342;2022-12-07T04:15:04;92454.94;;;0.59;78.29
39613;BME280;25303;48.896;13.342;2022-12-07T04:17:47;92454.13;;;0.59;78.43
39613;BME280;25303;48.896;13.342;2022-12-07T04:20:30;92460.81;;;0.60;78.55
39613;BME280;25303;48.896;13.342;2022-12-07T04:23:12;92456.56;;;0.60;78.49
39613;BME280;25303;48.896;13.342;2022-12-07T04:25:55;92453.22;;;0.60;78.64
39613;BME280;25303;48.896;13.342;2022-12-07T04:28:40;92459.09;;;0.60;78.58
39613;BME280;25303;48.896;13.342;2022-12-07T04:31:22;92461.63;;;0.60;78.35
39613;BME280;25303;48.896;13.342;2022-12-07T04:34:06;92462.44;;;0.61;78.30
39613;BME280;25303;48.896;13.342;2022-12-07T04:36:49;92459.09;;;0.60;78.29
39613;BME280;25303;48.896;13.342;2022-12-07T04:39:33;92458.38;;;0.58;78.30
39613;BME280;25303;48.896;13.342;2022-12-07T04:42:16;92460.91;;;0.58;78.27
39613;BME280;25303;48.896;13.342;2022-12-07T04:45:00;92456.78;;;0.57;78.26
39613;BME280;25303;48.896;13.342;2022-12-07T04:47:43;92457.69;;;0.56;78.06
39613;BME280;25303;48.896;13.342;2022-12-07T04:50:26;92454.34;;;0.56;78.05
39613;BME280;25303;48.896;13.342;2022-12-07T04:53:09;92452.84;;;0.53;78.04
39613;BME280;25303;48.896;13.342;2022-12-07T04:55:51;92451.22;;;0.52;77.96
39613;BME280;25303;48.896;13.342;2022-12-07T04:58:34;92452.03;;;0.53;78.21
39613;BME280;25303;48.896;13.342;2022-12-07T05:01:19;92451.09;;;0.54;78.13
39613;BME280;25303;48.896;13.342;2022-12-07T05:04:03;92455.47;;;0.52;78.23
39613;BME280;25303;48.896;13.342;2022-12-07T05:06:46;92457.19;;;0.51;78.03
39613;BME280;25303;48.896;13.342;2022-12-07T05:09:29;92454.66;;;0.51;78.04
39613;BME280;25303;48.896;13.342;2022-12-07T05:12:12;92458.91;;;0.51;77.93
39613;BME280;25303;48.896;13.342;2022-12-07T05:14:55;92459.94;;;0.48;77.91
39613;BME280;25303;48.896;13.342;2022-12-07T05:17:39;92463.38;;;0.47;77.81
39613;BME280;25303;48.896;13.342;2022-12-07T05:20:22;92458.44;;;0.45;77.79
39613;BME280;25303;48.896;13.342;2022-12-07T05:23:04;92461.88;;;0.44;77.74
39613;BME280;25303;48.896;13.342;2022-12-07T05:25:47;92456.13;;;0.42;77.51
39613;BME280;25303;48.896;13.342;2022-12-07T05:28:30;92459.69;;;0.40;77.56
39613;BME280;25303;48.896;13.342;2022-12-07T05:31:13;92461.38;;;0.39;77.65
39613;BME280;25303;48.896;13.342;2022-12-07T05:33:57;92468.91;;;0.41;77.65
39613;BME280;25303;48.896;13.342;2022-12-07T05:36:40;92468.06;;;0.40;77.67
39613;BME280;25303;48.896;13.342;2022-12-07T05:39:23;92469.81;;;0.40;77.76
39613;BME280;25303;48.896;13.342;2022-12-07T05:42:06;92472.34;;;0.40;77.73
39613;BME280;25303;48.896;13.342;2022-12-07T05:44:55;92466.44;;;0.39;77.78
39613;BME280;25303;48.896;13.342;2022-12-07T05:47:38;92472.34;;;0.40;77.67
39613;BME280;25303;48.896;13.342;2022-12-07T05:50:22;92471.44;;;0.41;77.61
39613;BME280;25303;48.896;13.342;2022-12-07T05:53:14;92478.91;;;0.42;77.82
39613;BME280;25303;48.896;13.342;2022-12-07T05:56:04;92480.63;;;0.42;77.76
39613;BME280;25303;48.896;13.342;2022-12-07T05:58:47;92485.59;;;0.43;77.97
39613;BME280;25303;48.896;13.342;2022-12-07T06:01:48;92481.44;;;0.42;77.72
39613;BME280;25303;48.896;13.342;2022-12-07T06:04:33;92480.63;;;0.42;77.57
39613;BME280;25303;48.896;13.342;2022-12-07T06:07:17;92481.66;;;0.39;77.70
39613;BME280;25303;48.896;13.342;2022-12-07T06:10:00;92474.25;;;0.36;77.43
39613;BME280;25303;48.896;13.342;2022-12-07T06:12:43;92481.84;;;0.36;77.56
39613;BME280;25303;48.896;13.342;2022-12-07T06:15:27;92481.25;;;0.33;77.29
39613;BME280;25303;48.896;13.342;2022-12-07T06:18:10;92483.00;;;0.32;77.28
39613;BME280;25303;48.896;13.342;2022-12-07T06:20:53;92480.53;;;0.30;77.61
39613;BME280;25303;48.896;13.342;2022-12-07T06:23:37;92478.94;;;0.29;77.38
39613;BME280;25303;48.896;13.342;2022-12-07T06:26:20;92482.16;;;0.32;77.51
39613;BME280;25303;48.896;13.342;2022-12-07T06:29:03;92480.53;;;0.30;77.33
39613;BME280;25303;48.896;13.342;2022-12-07T06:31:46;92475.47;;;0.30;77.33
39613;BME280;25303;48.896;13.342;2022-12-07T06:34:29;92474.56;;;0.32;77.43
39613;BME280;25303;48.896;13.342;2022-12-07T06:37:12;92471.25;;;0.31;77.41
39613;BME280;25303;48.896;13.342;2022-12-07T06:39:57;92468.81;;;0.29;77.44
39613;BME280;25303;48.896;13.342;2022-12-07T06:42:40;92466.28;;;0.29;77.28
39613;BME280;25303;48.896;13.342;2022-12-07T06:45:23;92472.94;;;0.30;77.18
39613;BME280;25303;48.896;13.342;2022-12-07T06:48:06;92468.81;;;0.29;77.28
39613;BME280;25303;48.896;13.342;2022-12-07T06:50:49;92473.16;;;0.27;77.10
39613;BME280;25303;48.896;13.342;2022-12-07T06:53:36;92482.38;;;0.28;77.11
39613;BME280;25303;48.896;13.342;2022-12-07T06:56:20;92482.38;;;0.28;77.27
39613;BME280;25303;48.896;13.342;2022-12-07T06:59:04;92482.38;;;0.28;77.09
39613;BME280;25303;48.896;13.342;2022-12-07T07:01:48;92487.63;;;0.25;77.06
39613;BME280;25303;48.896;13.342;2022-12-07T07:04:31;92484.44;;;0.23;76.71
39613;BME280;25303;48.896;13.342;2022-12-07T07:07:14;92481.97;;;0.22;76.55
39613;BME280;25303;48.896;13.342;2022-12-07T07:09:57;92482.41;;;0.16;76.38
39613;BME280;25303;48.896;13.342;2022-12-07T07:12:41;92486.78;;;0.13;76.76
39613;BME280;25303;48.896;13.342;2022-12-07T07:15:24;92482.69;;;0.11;76.57
39613;BME280;25303;48.896;13.342;2022-12-07T07:18:07;92495.47;;;0.09;76.43
39613;BME280;25303;48.896;13.342;2022-12-07T07:20:50;92486.25;;;0.08;76.43
39613;BME280;25303;48.896;13.342;2022-12-07T07:23:33;92492.22;;;0.07;76.42
39613;BME280;25303;48.896;13.342;2022-12-07T07:26:16;92494.06;;;0.05;76.46
39613;BME280;25303;48.896;13.342;2022-12-07T07:29:05;92505.91;;;0.05;76.40
39613;BME280;25303;48.896;13.342;2022-12-07T07:31:48;92512.19;;;-0.01;76.33
39613;BME280;25303;48.896;13.342;2022-12-07T07:34:31;92510.66;;;-0.04;76.34
39613;BME280;25303;48.896;13.342;2022-12-07T07:37:14;92506.31;;;-0.02;76.60
39613;BME280;25303;48.896;13.342;2022-12-07T07:40:03;92509.44;;;0.02;76.35
39613;BME280;25303;48.896;13.342;2022-12-07T07:42:47;92510.47;;;-0.01;76.16
39613;BME280;25303;48.896;13.342;2022-12-07T07:45:31;92518.97;;;-0.02;75.90
39613;BME280;25303;48.896;13.342;2022-12-07T07:48:15;92519.06;;;-0.03;76.01
39613;BME280;25303;48.896;13.342;2022-12-07T07:50:58;92521.59;;;-0.03;76.26
39613;BME280;25303;48.896;13.342;2022-12-07T07:53:41;92526.47;;;0.00;76.46
39613;BME280;25303;48.896;13.342;2022-12-07T07:56:24;92537.06;;;0.05;76.63
39613;BME280;25303;48.896;13.342;2022-12-07T07:59:07;92541.16;;;0.08;76.41
39613;BME280;25303;48.896;13.342;2022-12-07T08:01:51;92545.91;;;0.12;76.58
39613;BME280;25303;48.896;13.342;2022-12-07T08:04:35;92543.16;;;0.16;76.26
39613;BME280;25303;48.896;13.342;2022-12-07T08:07:18;92544.78;;;0.17;76.17
39613;BME280;25303;48.896;13.342;2022-12-07T08:10:01;92544.69;;;0.18;76.04
39613;BME280;25303;48.896;13.342;2022-12-07T08:12:45;92551.25;;;0.21;76.16
39613;BME280;25303;48.896;13.342;2022-12-07T08:15:47;92542.66;;;0.23;76.03
39613;BME280;25303;48.896;13.342;2022-12-07T08:18:34;92548.41;;;0.25;75.93
39613;BME280;25303;48.896;13.342;2022-12-07T08:21:17;92550.13;;;0.25;75.94
39613;BME280;25303;48.896;13.342;2022-12-07T08:24:00;92558.44;;;0.27;75.98
39613;BME280;25303;48.896;13.342;2022-12-07T08:26:43;92555.59;;;0.32;76.04
39613;BME280;25303;48.896;13.342;2022-12-07T08:29:26;92561.38;;;0.34;76.17
39613;BME280;25303;48.896;13.342;2022-12-07T08:32:09;92557.00;;;0.36;76.08
39613;BME280;25303;48.896;13.342;2022-12-07T08:34:53;92559.34;;;0.39;76.11
39613;BME280;25303;48.896;13.342;2022-12-07T08:37:37;92562.59;;;0.41;76.11
39613;BME280;25303;48.896;13.342;2022-12-07T08:40:20;92556.69;;;0.40;75.99
39613;BME280;25303;48.896;13.342;2022-12-07T08:43:02;92561.75;;;0.40;75.88
39613;BME280;25303;48.896;13.342;2022-12-07T08:45:46;92566.72;;;0.42;75.97
39613;BME280;25303;48.896;13.342;2022-12-07T08:48:30;92563.19;;;0.44;75.97
39613;BME280;25303;48.896;13.342;2022-12-07T08:51:15;92567.94;;;0.49;76.15
39613;BME280;25303;48.896;13.342;2022-12-07T08:54:00;92567.63;;;0.54;75.91
39613;BME280;25303;48.896;13.342;2022-12-07T08:56:43;92566.50;;;0.58;75.84
39613;BME280;25303;48.896;13.342;2022-12-07T08:59:28;92575.59;;;0.60;75.88
39613;BME280;25303;48.896;13.342;2022-12-07T09:02:11;92582.41;;;0.60;75.73
39613;BME280;25303;48.896;13.342;2022-12-07T09:04:54;92578.56;;;0.54;75.30
39613;BME280;25303;48.896;13.342;2022-12-07T09:07:38;92576.94;;;0.53;75.25
39613;BME280;25303;48.896;13.342;2022-12-07T09:10:21;92573.59;;;0.53;75.62
39613;BME280;25303;48.896;13.342;2022-12-07T09:13:05;92579.88;;;0.60;75.75
39613;BME280;25303;48.896;13.342;2022-12-07T09:15:47;92578.53;;;0.67;75.81
39613;BME280;25303;48.896;13.342;2022-12-07T09:18:30;92580.53;;;0.75;75.71
39613;BME280;25303;48.896;13.342;2022-12-07T09:21:13;92578.63;;;0.79;75.75
39613;BME280;25303;48.896;13.342;2022-12-07T09:23:58;92583.78;;;0.77;75.14
39613;BME280;25303;48.896;13.342;2022-12-07T09:26:40;92576.50;;;0.72;75.34
39613;BME280;25303;48.896;13.342;2022-12-07T09:29:24;92574.09;;;0.71;75.27
39613;BME280;25303;48.896;13.342;2022-12-07T09:32:06;92573.97;;;0.72;75.45
39613;BME280;25303;48.896;13.342;2022-12-07T09:34:52;92573.19;;;0.72;75.24
39613;BME280;25303;48.896;13.342;2022-12-07T09:37:35;92566.50;;;0.71;75.34
39613;BME280;25303;48.896;13.342;2022-12-07T09:40:21;92553.81;;;0.71;75.43
39613;BME280;25303;48.896;13.342;2022-12-07T09:43:04;92563.75;;;0.74;75.27
39613;BME280;25303;48.896;13.342;2022-12-07T09:45:51;92565.25;;;0.77;75.76
39613;BME280;25303;48.896;13.342;2022-12-07T09:48:36;92573.84;;;0.87;75.69
39613;BME280;25303;48.896;13.342;2022-12-07T09:51:21;92569.84;;;0.96;75.72
39613;BME280;25303;48.896;13.342;2022-12-07T09:54:09;92560.91;;;1.03;75.51
39613;BME280;25303;48.896;13.342;2022-12-07T09:56:56;92556.22;;;1.10;75.39
39613;BME280;25303;48.896;13.342;2022-12-07T09:59:39;92559.13;;;1.16;75.27
39613;BME280;25303;48.896;13.342;2022-12-07T10:02:25;92559.72;;;1.20;75.05
39613;BME280;25303;48.896;13.342;2022-12-07T10:05:14;92556.19;;;1.23;75.18
39613;BME280;25303;48.896;13.342;2022-12-07T10:08:04;92555.94;;;1.26;74.93
39613;BME280;25303;48.896;13.342;2022-12-07T10:10:50;92554.94;;;1.28;74.93
39613;BME280;25303;48.896;13.342;2022-12-07T10:13:37;92547.13;;;1.31;74.87
39613;BME280;25303;48.896;13.342;2022-12-07T10:16:37;92549.66;;;1.31;74.65
39613;BME280;25303;48.896;13.342;2022-12-07T10:19:24;92546.28;;;1.31;74.38
39613;BME280;25303;48.896;13.342;2022-12-07T10:22:13;92547.34;;;1.28;74.47
39613;BME280;25303;48.896;13.342;2022-12-07T10:25:08;92538.81;;;1.29;74.47
39613;BME280;25303;48.896;13.342;2022-12-07T10:27:57;92537.97;;;1.29;74.43
39613;BME280;25303;48.896;13.342;2022-12-07T10:30:51;92536.47;;;1.26;74.26
39613;BME280;25303;48.896;13.342;2022-12-07T10:33:37;92534.88;;;1.25;74.39
39613;BME280;25303;48.896;13.342;2022-12-07T10:36:23;92531.63;;;1.23;73.96
39613;BME280;25303;48.896;13.342;2022-12-07T10:39:13;92527.59;;;1.20;74.05
39613;BME280;25303;48.896;13.342;2022-12-07T10:41:58;92528.16;;;1.24;74.31
39613;BME280;25303;48.896;13.342;2022-12-07T10:44:41;92527.13;;;1.27;74.32
39613;BME280;25303;48.896;13.342;2022-12-07T10:47:33;92523.69;;;1.28;74.10
39613;BME280;25303;48.896;13.342;2022-12-07T10:50:43;92516.28;;;1.25;74.01
39613;BME280;25303;48.896;13.342;2022-12-07T10:53:41;92505.22;;;1.26;74.23
39613;BME280;25303;48.896;13.342;2022-12-07T10:56:38;92506.63;;;1.30;74.26
39613;BME280;25303;48.896;13.342;2022-12-07T11:05:45;92503.56;;;1.38;74.16
39613;BME280;25303;48.896;13.342;2022-12-07T11:08:43;92514.28;;;1.41;74.19
39613;BME280;25303;48.896;13.342;2022-12-07T11:11:33;92504.75;;;1.45;73.89
39613;BME280;25303;48.896;13.342;2022-12-07T11:14:23;92507.97;;;1.47;74.03
39613;BME280;25303;48.896;13.342;2022-12-07T11:17:12;92504.53;;;1.48;73.91
39613;BME280;25303;48.896;13.342;2022-12-07T11:20:11;92498.53;;;1.49;73.62
39613;BME280;25303;48.896;13.342;2022-12-07T11:23:02;92493.56;;;1.47;73.59
39613;BME280;25303;48.896;13.342;2022-12-07T11:25:53;92490.22;;;1.47;73.59
39613;BME280;25303;48.896;13.342;2022-12-07T11:28:47;92487.69;;;1.47;73.33
39613;BME280;25303;48.896;13.342;2022-12-07T11:31:46;92491.13;;;1.46;73.45
39613;BME280;25303;48.896;13.342;2022-12-07T11:34:39;92489.31;;;1.48;73.70
39613;BME280;25303;48.896;13.342;2022-12-07T11:37:28;92485.50;;;1.54;73.87
39613;BME280;25303;48.896;13.342;2022-12-07T11:40:24;92480.22;;;1.57;73.62
39613;BME280;25303;48.896;13.342;2022-12-07T11:43:18;92479.97;;;1.60;73.57
39613;BME280;25303;48.896;13.342;2022-12-07T11:46:04;92485.53;;;1.65;73.64
39613;BME280;25303;48.896;13.342;2022-12-07T11:48:53;92478.72;;;1.65;73.60
39613;BME280;25303;48.896;13.342;2022-12-07T11:51:38;92478.81;;;1.64;73.53
39613;BME280;25303;48.896;13.342;2022-12-07T11:54:26;92474.56;;;1.64;73.53
39613;BME280;25303;48.896;13.342;2022-12-07T11:57:13;92466.13;;;1.64;73.43
39613;BME280;25303;48.896;13.342;2022-12-07T12:00:04;92476.19;;;1.65;73.61
39613;BME280;25303;48.896;13.342;2022-12-07T12:02:52;92471.00;;;1.67;73.33
39613;BME280;25303;48.896;13.342;2022-12-07T12:05:39;92473.53;;;1.67;73.25
39613;BME280;25303;48.896;13.342;2022-12-07T12:08:23;92474.22;;;1.69;72.64
39613;BME280;25303;48.896;13.342;2022-12-07T12:11:44;92464.88;;;1.70;72.71
39613;BME280;25303;48.896;13.342;2022-12-07T12:14:46;92461.75;;;1.66;72.60
39613;BME280;25303;48.896;13.342;2022-12-07T12:17:47;92465.34;;;1.63;72.50
39613;BME280;25303;48.896;13.342;2022-12-07T12:20:36;92456.91;;;1.63;72.80
39613;BME280;25303;48.896;13.342;2022-12-07T12:23:27;92457.75;;;1.63;72.53
39613;BME280;25303;48.896;13.342;2022-12-07T12:26:17;92462.91;;;1.62;72.71
39613;BME280;25303;48.896;13.342;2022-12-07T12:29:05;92461.41;;;1.59;72.60
39613;BME280;25303;48.896;13.342;2022-12-07T12:32:06;92464.03;;;1.58;72.62
39613;BME280;25303;48.896;13.342;2022-12-07T12:35:03;92449.06;;;1.55;72.68
39613;BME280;25303;48.896;13.342;2022-12-07T12:38:29;92456.78;;;1.53;72.61
39613;BME280;25303;48.896;13.342;2022-12-07T12:48:07;92453.09;;;1.46;72.99
39613;BME280;25303;48.896;13.342;2022-12-07T12:51:37;92449.84;;;1.44;73.02
39613;BME280;25303;48.896;13.342;2022-12-07T12:54:22;92449.03;;;1.43;73.10
39613;BME280;25303;48.896;13.342;2022-12-07T12:57:10;92451.47;;;1.45;73.06
39613;BME280;25303;48.896;13.342;2022-12-07T12:59:57;92441.97;;;1.35;73.05
39613;BME280;25303;48.896;13.342;2022-12-07T13:02:48;92438.66;;;1.35;73.22
39613;BME280;25303;48.896;13.342;2022-12-07T13:05:32;92434.28;;;1.37;73.34
39613;BME280;25303;48.896;13.342;2022-12-07T13:08:18;92431.75;;;1.37;73.19
39613;BME280;25303;48.896;13.342;2022-12-07T13:11:17;92444.50;;;1.35;73.30
39613;BME280;25303;48.896;13.342;2022-12-07T13:14:35;92437.16;;;1.32;73.16
39613;BME280;25303;48.896;13.342;2022-12-07T13:20:47;92434.13;;;1.27;73.04
39613;BME280;25303;48.896;13.342;2022-12-07T13:23:31;92433.31;;;1.27;73.35
39613;BME280;25303;48.896;13.342;2022-12-07T13:26:17;92436.75;;;1.26;73.38
39613;BME280;25303;48.896;13.342;2022-12-07T13:29:09;92444.50;;;1.24;73.11
39613;BME280;25303;48.896;13.342;2022-12-07T13:31:55;92433.06;;;1.18;73.33
39613;BME280;25303;48.896;13.342;2022-12-07T13:34:39;92440.78;;;1.17;73.29
39613;BME280;25303;48.896;13.342;2022-12-07T13:37:24;92433.03;;;1.07;73.51
39613;BME280;25303;48.896;13.342;2022-12-07T13:40:17;92430.81;;;1.02;73.42
39613;BME280;25303;48.896;13.342;2022-12-07T13:43:03;92437.06;;;0.98;73.70
39613;BME280;25303;48.896;13.342;2022-12-07T13:45:56;92434.81;;;0.94;73.85
39613;BME280;25303;48.896;13.342;2022-12-07T13:48:43;92433.44;;;0.89;74.00
39613;BME280;25303;48.896;13.342;2022-12-07T13:51:28;92426.84;;;0.87;73.84
39613;BME280;25303;48.896;13.342;2022-12-07T13:54:13;92422.94;;;0.83;74.20
39613;BME280;25303;48.896;13.342;2022-12-07T13:56:57;92419.56;;;0.82;74.13
39613;BME280;25303;48.896;13.342;2022-12-07T13:59:40;92424.06;;;0.79;74.35
39613;BME280;25303;48.896;13.342;2022-12-07T14:02:26;92428.31;;;0.78;74.22
39613;BME280;25303;48.896;13.342;2022-12-07T14:05:23;92424.41;;;0.74;74.18
39613;BME280;25303;48.896;13.342;2022-12-07T14:08:22;92436.25;;;0.73;74.25
39613;BME280;25303;48.896;13.342;2022-12-07T14:11:10;92418.63;;;0.72;74.45
39613;BME280;25303;48.896;13.342;2022-12-07T14:13:57;92431.50;;;0.69;74.61
39613;BME280;25303;48.896;13.342;2022-12-07T14:16:40;92419.75;;;0.68;74.55
39613;BME280;25303;48.896;13.342;2022-12-07T14:19:47;92431.00;;;0.64;74.60
39613;BME280;25303;48.896;13.342;2022-12-07T14:22:32;92411.66;;;0.63;74.71
39613;BME280;25303;48.896;13.342;2022-12-07T14:25:19;92431.91;;;0.63;74.82
39613;BME280;25303;48.896;13.342;2022-12-07T14:28:04;92417.63;;;0.62;74.95
39613;BME280;25303;48.896;13.342;2022-12-07T14:30:47;92421.78;;;0.63;74.92
39613;BME280;25303;48.896;13.342;2022-12-07T14:33:30;92406.50;;;0.64;75.21
39613;BME280;25303;48.896;13.342;2022-12-07T14:36:13;92413.97;;;0.66;75.09
39613;BME280;25303;48.896;13.342;2022-12-07T14:38:56;92409.75;;;0.66;74.98
39613;BME280;25303;48.896;13.342;2022-12-07T14:41:41;92410.53;;;0.67;74.86
39613;BME280;25303;48.896;13.342;2022-12-07T14:44:37;92416.50;;;0.66;75.34
39613;BME280;25303;48.896;13.342;2022-12-07T14:47:19;92404.75;;;0.65;75.08
39613;BME280;25303;48.896;13.342;2022-12-07T14:50:22;92412.28;;;0.66;75.24
39613;BME280;25303;48.896;13.342;2022-12-07T14:53:12;92409.75;;;0.66;75.15
39613;BME280;25303;48.896;13.342;2022-12-07T14:56:05;92407.22;;;0.66;75.34
39613;BME280;25303;48.896;13.342;2022-12-07T14:58:48;92402.94;;;0.67;75.50
39613;BME280;25303;48.896;13.342;2022-12-07T15:01:32;92402.03;;;0.68;75.44
39613;BME280;25303;48.896;13.342;2022-12-07T15:04:15;92413.84;;;0.67;75.42
39613;BME280;25303;48.896;13.342;2022-12-07T15:07:00;92401.31;;;0.66;75.63
39613;BME280;25303;48.896;13.342;2022-12-07T15:09:43;92408.00;;;0.67;75.58